createdAt,value
2018-12-06T00:02:01.069Z,84.95
2018-12-06T00:04:28.485Z,84.74
2018-12-06T00:06:56.498Z,84.53
2018-12-06T00:09:23.954Z,84.50
2018-12-06T00:11:51.363Z,84.39
2018-12-06T00:14:18.793Z,84.69
2018-12-06T00:16:46.207Z,83.78
2018-12-06T00:19:13.612Z,83.61
2018-12-06T00:21:41.026Z,83.23
2018-12-06T00:24:08.477Z,82.54
2018-12-06T00:26:35.883Z,82.57
2018-12-06T00:29:03.309Z,82.50
2018-12-06T00:31:30.757Z,82.63
2018-12-06T00:33:58.146Z,82.04
2018-12-06T00:36:25.561Z,81.97
2018-12-06T00:38:53.005Z,81.64
2018-12-06T00:41:20.409Z,81.16
2018-12-06T00:43:47.832Z,80.96
2018-12-06T00:46:15.243Z,80.57
2018-12-06T00:48:42.655Z,80.27
2018-12-06T00:51:10.060Z,79.82
2018-12-06T00:53:37.498Z,79.63
2018-12-06T00:56:04.915Z,79.27
2018-12-06T00:58:32.321Z,79.45
2018-12-06T01:00:59.737Z,79.67
2018-12-06T01:03:27.181Z,79.26
2018-12-06T01:05:54.643Z,79.19
2018-12-06T01:08:22.072Z,78.25
2018-12-06T01:10:49.467Z,77.66
2018-12-06T01:13:16.881Z,77.76
2018-12-06T01:15:44.323Z,78.27
2018-12-06T01:18:11.739Z,78.76
2018-12-06T01:20:39.132Z,78.56
2018-12-06T01:23:06.543Z,79.04
2018-12-06T01:25:33.950Z,79.35
2018-12-06T01:28:01.369Z,78.99
2018-12-06T01:30:28.784Z,79.07
2018-12-06T01:32:56.221Z,78.64
2018-12-06T01:35:23.636Z,78.67
2018-12-06T01:37:51.135Z,79.01
2018-12-06T01:40:18.563Z,79.03
2018-12-06T01:42:45.994Z,79.00
2018-12-06T01:45:13.403Z,79.13
2018-12-06T01:47:40.812Z,78.52
2018-12-06T01:50:08.350Z,77.74
2018-12-06T01:52:35.783Z,76.89
2018-12-06T01:55:04.043Z,75.83
2018-12-06T01:57:32.362Z,75.36
2018-12-06T01:59:59.770Z,74.33
2018-12-06T02:02:27.172Z,74.03
2018-12-06T02:04:54.576Z,73.15
2018-12-06T02:07:21.973Z,72.80
2018-12-06T02:09:49.397Z,72.17
2018-12-06T02:12:16.852Z,71.75
2018-12-06T02:14:44.263Z,71.60
2018-12-06T02:17:11.681Z,71.33
2018-12-06T02:19:39.737Z,71.61
2018-12-06T02:22:07.147Z,71.67
2018-12-06T02:24:34.557Z,71.67
2018-12-06T02:27:02.035Z,71.49
2018-12-06T02:29:29.447Z,71.91
2018-12-06T02:31:56.853Z,72.30
2018-12-06T02:34:24.278Z,72.62
2018-12-06T02:36:51.681Z,72.97
2018-12-06T02:39:19.089Z,73.51
2018-12-06T02:41:46.499Z,74.01
2018-12-06T02:44:14.618Z,74.30
2018-12-06T02:46:42.021Z,74.53
2018-12-06T02:49:09.572Z,75.21
2018-12-06T02:51:36.997Z,75.39
2018-12-06T02:54:04.415Z,75.41
2018-12-06T02:56:31.822Z,75.55
2018-12-06T02:58:59.229Z,75.49
2018-12-06T03:01:26.633Z,75.45
2018-12-06T03:03:54.122Z,75.54
2018-12-06T03:06:21.540Z,75.45
2018-12-06T03:08:48.965Z,75.64
2018-12-06T03:11:16.393Z,76.08
2018-12-06T03:13:43.840Z,76.56
2018-12-06T03:16:11.253Z,76.88
2018-12-06T03:18:38.687Z,77.14
2018-12-06T03:21:06.164Z,77.58
2018-12-06T03:23:33.626Z,77.57
2018-12-06T03:26:01.056Z,77.60
2018-12-06T03:28:28.456Z,78.05
2018-12-06T03:30:55.888Z,78.21
2018-12-06T03:33:23.313Z,78.41
2018-12-06T03:35:50.802Z,78.50
2018-12-06T03:38:18.216Z,79.22
2018-12-06T03:40:45.649Z,79.20
2018-12-06T03:43:13.086Z,79.86
2018-12-06T03:45:41.478Z,80.24
2018-12-06T03:48:08.905Z,80.56
2018-12-06T03:50:36.362Z,80.64
2018-12-06T03:53:03.769Z,80.68
2018-12-06T03:55:31.465Z,80.60
2018-12-06T03:57:58.876Z,80.76
2018-12-06T04:00:26.299Z,80.90
2018-12-06T04:02:53.933Z,80.80
2018-12-06T04:05:21.331Z,80.93
2018-12-06T04:07:48.780Z,81.20
2018-12-06T04:10:16.232Z,81.03
2018-12-06T04:12:43.703Z,80.89
2018-12-06T04:15:11.141Z,80.83
2018-12-06T04:17:38.591Z,80.94
2018-12-06T04:20:06.004Z,80.91
2018-12-06T04:22:33.423Z,80.87
2018-12-06T04:25:00.828Z,80.64
2018-12-06T04:27:28.229Z,80.71
2018-12-06T04:29:55.649Z,80.72
2018-12-06T04:32:23.315Z,80.59
2018-12-06T04:34:50.720Z,80.49
2018-12-06T04:37:18.157Z,80.45
2018-12-06T04:39:45.578Z,80.36
2018-12-06T04:42:13.500Z,80.30
2018-12-06T04:44:40.925Z,80.12
2018-12-06T04:47:08.339Z,79.61
2018-12-06T04:49:35.739Z,79.46
2018-12-06T04:52:03.213Z,79.48
2018-12-06T04:54:30.759Z,79.90
2018-12-06T04:56:58.156Z,79.95
2018-12-06T04:59:25.617Z,79.98
2018-12-06T05:01:53.016Z,80.04
2018-12-06T05:04:20.421Z,80.40
2018-12-06T05:06:47.839Z,80.76
2018-12-06T05:09:15.256Z,80.87
2018-12-06T05:11:42.733Z,80.87
2018-12-06T05:14:10.173Z,81.20
2018-12-06T05:16:37.625Z,81.32
2018-12-06T05:19:05.058Z,81.27
2018-12-06T05:21:32.459Z,81.01
2018-12-06T05:23:59.865Z,81.05
2018-12-06T05:26:27.296Z,80.90
2018-12-06T05:28:54.688Z,81.02
2018-12-06T05:31:22.115Z,81.34
2018-12-06T05:33:49.542Z,80.96
2018-12-06T05:36:16.997Z,80.66
2018-12-06T05:38:44.459Z,80.75
2018-12-06T05:41:12.790Z,80.64
2018-12-06T05:43:40.185Z,80.72
2018-12-06T05:46:07.724Z,80.55
2018-12-06T05:48:35.168Z,80.48
2018-12-06T05:51:02.569Z,80.65
2018-12-06T05:53:29.957Z,80.85
2018-12-06T05:55:57.355Z,81.22
2018-12-06T05:58:24.879Z,81.62
2018-12-06T06:00:52.287Z,82.11
2018-12-06T06:03:19.708Z,82.32
2018-12-06T06:05:47.111Z,82.56
2018-12-06T06:08:14.888Z,82.73
2018-12-06T06:10:42.304Z,82.73
2018-12-06T06:13:10.070Z,82.97
2018-12-06T06:15:37.543Z,82.98
2018-12-06T06:18:05.032Z,83.25
2018-12-06T06:20:32.433Z,83.33
2018-12-06T06:22:59.949Z,83.36
2018-12-06T06:25:27.423Z,83.23
2018-12-06T06:27:54.820Z,83.07
2018-12-06T06:30:22.243Z,83.35
2018-12-06T06:32:49.648Z,83.75
2018-12-06T06:35:17.055Z,84.20
2018-12-06T06:37:44.472Z,84.19
2018-12-06T06:40:11.895Z,84.36
2018-12-06T06:42:39.325Z,84.53
2018-12-06T06:45:06.805Z,84.50
2018-12-06T06:47:35.111Z,84.45
2018-12-06T06:52:36.430Z,84.18
2018-12-06T06:55:03.836Z,84.59
2018-12-06T06:57:31.285Z,84.80
2018-12-06T06:59:58.720Z,84.97
2018-12-06T07:02:26.127Z,85.16
2018-12-06T07:04:53.524Z,85.35
2018-12-06T07:07:20.937Z,85.69
2018-12-06T07:09:48.364Z,85.72
2018-12-06T07:12:15.797Z,85.85
2018-12-06T07:14:43.206Z,86.04
2018-12-06T07:17:10.642Z,86.02
2018-12-06T07:19:38.064Z,86.07
2018-12-06T07:22:06.045Z,86.22
2018-12-06T07:24:33.500Z,86.28
2018-12-06T07:27:00.996Z,86.44
2018-12-06T07:29:28.388Z,86.57
2018-12-06T07:31:55.828Z,86.41
2018-12-06T07:34:23.270Z,86.44
2018-12-06T07:36:50.684Z,86.42
2018-12-06T07:39:18.080Z,86.39
2018-12-06T07:41:45.519Z,86.53
2018-12-06T07:44:12.915Z,86.56
2018-12-06T07:46:40.354Z,86.51
2018-12-06T07:49:07.861Z,86.37
2018-12-06T07:51:35.361Z,86.44
2018-12-06T07:54:02.776Z,86.17
2018-12-06T07:56:30.384Z,86.18
2018-12-06T07:58:57.848Z,86.06
2018-12-06T08:01:26.031Z,86.12
2018-12-06T08:03:53.464Z,86.18
2018-12-06T08:06:21.952Z,85.95
2018-12-06T08:08:49.397Z,85.68
2018-12-06T08:11:16.802Z,85.21
2018-12-06T08:13:44.227Z,85.16
2018-12-06T08:16:11.654Z,85.29
2018-12-06T08:18:40.565Z,85.24
2018-12-06T08:21:08.565Z,84.98
2018-12-06T08:23:35.981Z,84.87
2018-12-06T08:26:03.389Z,84.08
2018-12-06T08:28:30.807Z,84.41
2018-12-06T08:30:58.363Z,84.71
2018-12-06T08:33:26.030Z,84.36
2018-12-06T08:35:54.403Z,83.99
2018-12-06T08:38:22.264Z,84.11
2018-12-06T08:40:49.849Z,84.05
2018-12-06T08:43:17.246Z,84.08
2018-12-06T08:45:44.689Z,84.15
2018-12-06T08:48:12.094Z,84.13
2018-12-06T08:50:39.500Z,84.22
2018-12-06T08:53:11.844Z,84.33
2018-12-06T08:55:39.283Z,83.96
2018-12-06T08:58:06.917Z,83.98
2018-12-06T09:00:34.409Z,84.00
2018-12-06T09:03:01.829Z,84.02
2018-12-06T09:05:29.224Z,84.10
2018-12-06T09:07:56.656Z,84.07
2018-12-06T09:10:24.050Z,83.82
2018-12-06T09:12:51.486Z,83.46
2018-12-06T09:15:18.937Z,83.29
2018-12-06T09:17:46.370Z,83.16
2018-12-06T09:20:13.805Z,83.51
2018-12-06T09:22:41.216Z,83.62
2018-12-06T09:25:08.612Z,83.60
2018-12-06T09:27:36.033Z,83.42
2018-12-06T09:30:03.902Z,83.20
2018-12-06T09:32:31.299Z,82.69
2018-12-06T09:34:58.698Z,82.28
2018-12-06T09:37:26.152Z,82.20
2018-12-06T09:39:56.253Z,82.15
2018-12-06T09:42:23.641Z,82.17
2018-12-06T09:44:51.055Z,82.33
2018-12-06T09:47:18.544Z,82.05
2018-12-06T09:49:45.941Z,81.74
2018-12-06T09:52:13.376Z,81.80
2018-12-06T09:54:40.853Z,81.62
2018-12-06T09:57:08.256Z,81.56
2018-12-06T09:59:35.893Z,80.97
2018-12-06T10:02:03.373Z,81.83
2018-12-06T10:04:30.803Z,81.72
2018-12-06T10:06:58.211Z,81.76
2018-12-06T10:09:25.631Z,81.49
2018-12-06T10:11:53.197Z,81.46
2018-12-06T10:14:20.689Z,81.93
2018-12-06T10:16:48.133Z,82.36
2018-12-06T10:19:15.533Z,82.40
2018-12-06T10:21:43.986Z,82.16
2018-12-06T10:24:11.403Z,81.86
2018-12-06T10:26:38.827Z,81.89
2018-12-06T10:29:06.600Z,82.07
2018-12-06T10:31:34.029Z,82.22
2018-12-06T10:34:01.468Z,81.99
2018-12-06T10:36:29.483Z,81.81
2018-12-06T10:38:56.901Z,81.34
2018-12-06T10:41:24.356Z,81.24
2018-12-06T10:43:51.758Z,81.20
2018-12-06T10:46:19.167Z,80.95
2018-12-06T10:48:47.456Z,80.99
2018-12-06T10:51:26.727Z,81.26
2018-12-06T10:53:54.184Z,81.49
2018-12-06T10:56:21.684Z,80.77
2018-12-06T10:58:50.059Z,80.69
2018-12-06T11:01:17.464Z,80.80
2018-12-06T11:03:50.542Z,80.05
2018-12-06T11:06:18.009Z,79.76
2018-12-06T11:08:45.461Z,79.52
2018-12-06T11:11:13.233Z,79.75
2018-12-06T11:13:41.436Z,78.95
2018-12-06T11:16:08.917Z,78.49
2018-12-06T11:18:36.368Z,78.41
2018-12-06T11:21:03.938Z,78.04
2018-12-06T11:23:31.351Z,77.87
2018-12-06T11:25:58.782Z,77.69
2018-12-06T11:28:26.277Z,77.00
2018-12-06T11:30:54.713Z,76.89
2018-12-06T11:33:22.181Z,76.25
2018-12-06T11:35:50.856Z,76.33
2018-12-06T11:38:18.286Z,76.60
2018-12-06T11:40:45.791Z,76.34
2018-12-06T11:43:13.227Z,76.52
2018-12-06T11:45:40.625Z,77.11
2018-12-06T11:48:08.041Z,76.61
2018-12-06T11:50:35.868Z,75.53
2018-12-06T11:53:03.663Z,74.57
2018-12-06T11:55:31.325Z,75.05
2018-12-06T11:57:58.637Z,74.44
2018-12-06T12:00:26.283Z,75.02
2018-12-06T12:02:53.641Z,75.52
2018-12-06T12:05:22.039Z,76.46
2018-12-06T12:07:49.471Z,76.39
2018-12-06T12:10:16.888Z,75.02
2018-12-06T12:12:45.040Z,73.76
2018-12-06T12:15:12.432Z,73.04
2018-12-06T12:17:39.930Z,73.09
2018-12-06T12:20:07.402Z,73.17
2018-12-06T12:22:34.819Z,73.11
2018-12-06T12:25:02.243Z,72.34
2018-12-06T12:27:29.671Z,72.19
2018-12-06T12:29:57.204Z,73.03
2018-12-06T12:32:24.607Z,73.56
2018-12-06T12:34:52.149Z,74.12
2018-12-06T12:37:19.570Z,74.49
2018-12-06T12:39:47.026Z,75.03
2018-12-06T12:42:14.680Z,75.05
2018-12-06T12:44:42.086Z,75.35
2018-12-06T12:47:09.809Z,75.61
2018-12-06T12:49:37.213Z,75.90
2018-12-06T12:52:04.772Z,76.46
2018-12-06T12:54:33.200Z,76.68
2018-12-06T12:57:00.628Z,76.34
2018-12-06T12:59:28.059Z,76.61
2018-12-06T13:01:55.468Z,76.33
2018-12-06T13:04:22.876Z,76.31
2018-12-06T13:06:50.315Z,75.92
2018-12-06T13:09:17.758Z,75.34
2018-12-06T13:11:45.770Z,74.12
2018-12-06T13:14:13.225Z,73.55
2018-12-06T13:16:40.622Z,72.08
2018-12-06T13:19:08.035Z,70.75
2018-12-06T13:21:35.539Z,69.97
2018-12-06T13:24:02.940Z,68.78
2018-12-06T13:26:30.392Z,68.13
2018-12-06T13:28:57.820Z,68.24
2018-12-06T13:31:25.299Z,67.82
2018-12-06T13:33:52.745Z,65.83
2018-12-06T13:36:20.189Z,64.84
2018-12-06T13:38:47.622Z,65.81
2018-12-06T13:41:15.074Z,67.64
2018-12-06T13:43:42.578Z,68.42
2018-12-06T13:46:10.030Z,68.58
2018-12-06T13:48:37.403Z,68.92
2018-12-06T13:51:04.843Z,68.35
2018-12-06T13:53:32.904Z,67.45
2018-12-06T13:56:00.303Z,67.57
2018-12-06T13:58:27.720Z,66.63
2018-12-06T14:00:55.520Z,67.04
2018-12-06T14:03:23.714Z,66.48
2018-12-06T14:05:51.159Z,67.39
2018-12-06T14:08:18.709Z,67.98
2018-12-06T14:10:46.122Z,68.57
2018-12-06T14:13:13.510Z,69.32
2018-12-06T14:15:40.963Z,69.80
2018-12-06T14:18:08.453Z,69.20
2018-12-06T14:20:35.875Z,68.34
2018-12-06T14:23:03.284Z,69.04
2018-12-06T14:25:30.697Z,69.37
2018-12-06T14:27:58.117Z,69.13
2018-12-06T14:30:25.679Z,69.07
2018-12-06T14:32:53.109Z,69.42
2018-12-06T14:35:20.511Z,70.53
2018-12-06T14:37:47.924Z,71.64
2018-12-06T14:40:15.406Z,71.79
2018-12-06T14:42:43.810Z,71.45
2018-12-06T14:45:11.511Z,71.40
2018-12-06T14:47:38.944Z,71.71
2018-12-06T14:50:06.429Z,72.83
2018-12-06T14:52:34.870Z,72.88
2018-12-06T14:55:02.474Z,73.09
2018-12-06T14:57:29.952Z,73.74
2018-12-06T14:59:57.651Z,73.76
2018-12-06T15:02:25.531Z,73.76
2018-12-06T15:04:52.958Z,74.29
2018-12-06T15:07:20.795Z,74.15
2018-12-06T15:09:48.525Z,74.99
2018-12-06T15:12:15.932Z,74.93
2018-12-06T15:14:43.366Z,75.04
2018-12-06T15:17:11.810Z,75.15
2018-12-06T15:19:40.135Z,75.00
2018-12-06T15:22:07.546Z,75.09
2018-12-06T15:24:35.002Z,74.85
2018-12-06T15:27:02.415Z,75.25
2018-12-06T15:29:29.807Z,76.07
2018-12-06T15:31:57.345Z,76.25
2018-12-06T15:34:24.755Z,76.49
2018-12-06T15:36:52.192Z,76.25
2018-12-06T15:39:20.000Z,76.99
2018-12-06T15:41:47.501Z,77.23
2018-12-06T15:44:14.966Z,77.44
2018-12-06T15:46:42.441Z,77.47
2018-12-06T15:49:09.936Z,77.34
2018-12-06T15:51:37.565Z,77.90
2018-12-06T15:54:05.136Z,78.22
2018-12-06T15:56:32.555Z,78.30
2018-12-06T15:59:00.076Z,78.39
2018-12-06T16:01:27.516Z,78.48
2018-12-06T16:03:54.927Z,78.58
2018-12-06T16:06:22.357Z,78.74
2018-12-06T16:08:50.242Z,78.90
2018-12-06T16:11:17.684Z,79.17
2018-12-06T16:13:45.163Z,79.44
2018-12-06T16:16:12.683Z,79.49
2018-12-06T16:18:40.341Z,79.66
2018-12-06T16:21:08.042Z,79.70
2018-12-06T16:23:36.710Z,79.73
2018-12-06T16:26:04.140Z,79.74
2018-12-06T16:28:31.558Z,79.51
2018-12-06T16:30:58.977Z,79.37
2018-12-06T16:33:26.389Z,79.37
2018-12-06T16:35:53.806Z,79.47
2018-12-06T16:38:21.358Z,79.70
2018-12-06T16:40:48.759Z,79.96
2018-12-06T16:43:16.165Z,80.18
2018-12-06T16:45:43.776Z,80.25
2018-12-06T16:48:11.853Z,80.41
2018-12-06T16:50:39.386Z,80.66
2018-12-06T16:53:06.994Z,80.92
2018-12-06T16:55:34.403Z,81.06
2018-12-06T16:58:02.523Z,81.02
2018-12-06T17:00:30.041Z,81.15
2018-12-06T17:02:58.379Z,81.20
2018-12-06T17:05:25.875Z,81.16
2018-12-06T17:07:53.370Z,81.29
2018-12-06T17:10:20.783Z,81.30
2018-12-06T17:12:48.235Z,81.24
2018-12-06T17:15:16.501Z,81.29
2018-12-06T17:17:43.906Z,81.36
2018-12-06T17:20:11.379Z,81.47
2018-12-06T17:22:38.790Z,81.78
2018-12-06T17:25:06.212Z,81.64
2018-12-06T17:27:33.639Z,81.71
2018-12-06T17:30:01.134Z,81.61
2018-12-06T17:32:28.571Z,81.59
2018-12-06T17:34:56.146Z,81.49
2018-12-06T17:37:24.565Z,81.93
2018-12-06T17:39:51.982Z,81.68
2018-12-06T17:42:19.433Z,81.66
2018-12-06T17:44:46.852Z,81.99
2018-12-06T17:47:14.352Z,82.25
2018-12-06T17:49:41.753Z,82.40
2018-12-06T17:52:09.183Z,82.24
2018-12-06T17:54:36.823Z,82.14
2018-12-06T17:57:04.219Z,82.11
2018-12-06T17:59:31.698Z,82.14
2018-12-06T18:01:59.125Z,82.18
2018-12-06T18:04:26.597Z,82.22
2018-12-06T18:06:54.031Z,81.93
2018-12-06T18:09:21.589Z,81.74
2018-12-06T18:11:49.166Z,81.75
2018-12-06T18:14:18.907Z,81.50
2018-12-06T18:16:47.690Z,81.82
2018-12-06T18:19:15.119Z,82.07
2018-12-06T18:21:42.560Z,82.10
2018-12-06T18:24:10.024Z,81.57
2018-12-06T18:26:37.487Z,81.97
2018-12-06T18:29:05.130Z,82.17
2018-12-06T18:31:32.533Z,82.16
2018-12-06T18:33:59.936Z,82.16
2018-12-06T18:36:27.342Z,82.09
2018-12-06T18:38:54.821Z,81.94
2018-12-06T18:41:22.859Z,82.15
2018-12-06T18:43:50.262Z,81.95
2018-12-06T18:46:18.562Z,82.01
2018-12-06T18:48:45.979Z,82.07
2018-12-06T18:51:13.393Z,82.31
2018-12-06T18:53:40.811Z,82.12
2018-12-06T18:56:08.318Z,82.12
2018-12-06T18:58:36.486Z,81.96
2018-12-06T19:01:03.909Z,81.88
2018-12-06T19:03:31.360Z,81.65
2018-12-06T19:05:58.765Z,81.83
2018-12-06T19:08:26.200Z,82.14
2018-12-06T19:10:53.836Z,82.18
2018-12-06T19:13:21.324Z,82.35
2018-12-06T19:15:48.996Z,82.46
2018-12-06T19:18:16.393Z,82.75
2018-12-06T19:20:43.941Z,82.53
2018-12-06T19:23:11.971Z,82.45
2018-12-06T19:25:39.473Z,82.57
2018-12-06T19:28:06.904Z,82.73
2018-12-06T19:30:37.249Z,82.51
2018-12-06T19:33:03.417Z,81.96
2018-12-06T19:35:30.672Z,81.54
2018-12-06T19:37:58.112Z,81.02
2018-12-06T19:40:25.562Z,80.69
2018-12-06T19:42:53.096Z,80.77
2018-12-06T19:45:20.488Z,80.85
2018-12-06T19:47:48.349Z,80.60
2018-12-06T19:50:16.046Z,80.92
2018-12-06T19:52:43.531Z,81.17
2018-12-06T19:55:10.894Z,81.37
2018-12-06T19:57:38.315Z,81.73
2018-12-06T20:00:05.727Z,81.76
2018-12-06T20:02:33.211Z,81.37
2018-12-06T20:05:00.629Z,81.02
2018-12-06T20:07:28.036Z,80.88
2018-12-06T20:09:55.467Z,81.13
2018-12-06T20:12:23.036Z,80.89
2018-12-06T20:14:50.452Z,81.05
2018-12-06T20:17:18.611Z,81.15
2018-12-06T20:19:46.207Z,81.47
2018-12-06T20:22:13.649Z,81.54
2018-12-06T20:24:41.192Z,81.59
2018-12-06T20:27:08.609Z,81.46
2018-12-06T20:29:36.656Z,81.44
2018-12-06T20:32:04.074Z,81.14
2018-12-06T20:34:31.635Z,81.15
2018-12-06T20:36:59.524Z,81.19
2018-12-06T20:39:26.947Z,81.56
2018-12-06T20:41:54.364Z,81.70
2018-12-06T20:44:21.770Z,81.77
2018-12-06T20:46:49.399Z,81.63
2018-12-06T20:49:16.912Z,81.85
2018-12-06T20:51:44.344Z,82.06
2018-12-06T20:54:11.772Z,82.22
2018-12-06T20:56:39.219Z,82.38
2018-12-06T20:59:06.620Z,82.39
2018-12-06T21:01:34.129Z,82.59
2018-12-06T21:04:01.569Z,82.41
2018-12-06T21:06:28.977Z,82.52
2018-12-06T21:08:56.392Z,82.42
2018-12-06T21:11:23.984Z,82.61
2018-12-06T21:13:51.547Z,82.63
2018-12-06T21:16:19.397Z,82.29
2018-12-06T21:18:46.836Z,82.43
2018-12-06T21:21:14.413Z,82.35
2018-12-06T21:23:42.458Z,82.45
2018-12-06T21:26:10.781Z,82.24
2018-12-06T21:28:39.280Z,82.02
2018-12-06T21:31:06.707Z,81.69
2018-12-06T21:33:34.125Z,81.33
2018-12-06T21:36:02.154Z,81.30
2018-12-06T21:38:29.561Z,81.06
2018-12-06T21:40:57.031Z,81.35
2018-12-06T21:43:24.427Z,80.92
2018-12-06T21:45:51.997Z,80.82
2018-12-06T21:48:19.444Z,81.00
2018-12-06T21:50:46.900Z,81.08
2018-12-06T21:53:14.318Z,81.08
2018-12-06T21:55:41.829Z,81.06
2018-12-06T21:58:09.354Z,81.16
2018-12-06T22:00:37.941Z,81.24
2018-12-06T22:03:05.356Z,81.19
2018-12-06T22:05:33.131Z,81.38
2018-12-06T22:08:00.615Z,81.59
2018-12-06T22:10:28.037Z,81.43
2018-12-06T22:12:56.223Z,81.18
2018-12-06T22:15:23.631Z,80.96
2018-12-06T22:17:51.044Z,80.73
2018-12-06T22:20:18.510Z,80.92
2018-12-06T22:22:46.000Z,80.55
2018-12-06T22:25:13.416Z,80.61
2018-12-06T22:27:40.903Z,80.76
2018-12-06T22:30:08.319Z,80.88
2018-12-06T22:32:35.751Z,80.73
2018-12-06T22:35:03.845Z,80.39
2018-12-06T22:37:31.315Z,80.31
2018-12-06T22:39:58.800Z,80.23
2018-12-06T22:42:27.334Z,79.97
2018-12-06T22:44:54.724Z,79.95
2018-12-06T22:47:22.166Z,79.99
2018-12-06T22:49:49.604Z,80.12
2018-12-06T22:52:17.056Z,80.03
2018-12-06T22:54:44.469Z,80.06
2018-12-06T22:57:11.888Z,80.27
2018-12-06T22:59:39.291Z,80.27
2018-12-06T23:02:06.890Z,80.00
2018-12-06T23:04:36.741Z,79.83
2018-12-06T23:07:05.814Z,79.88
2018-12-06T23:09:31.653Z,79.83
2018-12-06T23:11:59.077Z,79.56
2018-12-06T23:14:27.232Z,79.04
2018-12-06T23:16:54.648Z,78.62
2018-12-06T23:19:22.056Z,79.23
2018-12-06T23:21:49.505Z,79.74
2018-12-06T23:24:16.883Z,80.28
2018-12-06T23:26:44.314Z,79.87
2018-12-06T23:29:11.965Z,79.68
2018-12-06T23:31:39.360Z,79.60
2018-12-06T23:34:06.794Z,79.24
2018-12-06T23:36:35.017Z,79.73
2018-12-06T23:39:02.452Z,79.45
2018-12-06T23:41:30.001Z,79.25
2018-12-06T23:43:57.447Z,79.12
2018-12-06T23:46:24.918Z,79.23
2018-12-06T23:48:53.194Z,79.03
2018-12-06T23:51:35.183Z,79.12
2018-12-06T23:54:02.606Z,79.48
2018-12-06T23:56:30.324Z,79.68
2018-12-06T23:58:57.739Z,79.42
